createdAt,value
2023-03-22T00:04:05.556Z,27.4
2023-03-22T00:24:05.458Z,27.39
2023-03-22T00:44:04.936Z,27.39
2023-03-22T01:04:05.311Z,27.39
2023-03-22T01:24:05.427Z,27.35
2023-03-22T01:44:05.429Z,27.38
2023-03-22T02:04:05.410Z,27.32
2023-03-22T02:24:05.408Z,27.37
2023-03-22T02:44:04.617Z,27.38
2023-03-22T03:04:05.380Z,27.37
2023-03-22T03:24:05.562Z,27.35
2023-03-22T03:44:05.364Z,27.35
2023-03-22T04:04:05.459Z,27.35
2023-03-22T04:24:05.354Z,27.35
2023-03-22T04:44:04.571Z,27.29
2023-03-22T05:04:05.242Z,27.33
2023-03-22T05:24:05.345Z,27.33
2023-03-22T05:44:04.590Z,27.33
2023-03-22T06:04:05.317Z,27.32
2023-03-22T06:24:05.319Z,27.32
2023-03-22T06:44:05.308Z,27.32
2023-03-22T07:24:05.282Z,27.31
2023-03-22T07:44:17.159Z,27.3
2023-03-22T08:04:05.286Z,27.29
2023-03-22T08:24:04.494Z,27.29
2023-03-22T08:44:05.243Z,27.28
2023-03-22T09:04:05.318Z,27.26
2023-03-22T09:24:04.444Z,27.27
2023-03-22T09:44:05.190Z,27.26
2023-03-22T10:04:05.243Z,27.26
2023-03-22T10:24:05.163Z,27.22
2023-03-22T11:24:05.124Z,27.25
2023-03-22T11:44:04.328Z,27.21
2023-03-22T12:04:05.161Z,27.22
2023-03-22T12:24:05.285Z,27.26
2023-03-22T12:44:05.286Z,27.25
2023-03-22T13:04:05.388Z,27.23
2023-03-22T13:24:05.253Z,27.22
2023-03-22T13:44:06.929Z,27.2
2023-03-22T14:04:05.097Z,27.18
2023-03-22T15:04:05.205Z,27.16
2023-03-22T15:24:05.192Z,27.15
2023-03-22T15:44:04.653Z,27.16
2023-03-22T16:04:05.036Z,27.15
2023-03-22T16:24:05.164Z,27.15
2023-03-22T17:04:05.140Z,27.15
2023-03-22T17:24:05.127Z,27.15
2023-03-22T17:44:05.132Z,27.15
2023-03-22T18:04:05.104Z,27.15
2023-03-22T18:24:05.107Z,27.15
2023-03-22T19:04:10.799Z,27.15
2023-03-22T19:24:10.913Z,27.15
2023-03-22T19:44:10.907Z,27.15
2023-03-22T20:04:10.775Z,27.15
2023-03-22T20:24:10.920Z,27.15
2023-03-22T20:44:10.886Z,27.14
2023-03-22T21:04:10.877Z,27.13
2023-03-22T21:24:10.869Z,27.14
